Time;durP1;ratioP1;P1;durP2;ratioP2;P2;SDS_P1;SDS_P2;PMS_P1;PMS_P2;Temp;Humidity;BMP_temperature;BMP_pressure;BME280_temperature;BME280_humidity;BME280_pressure;Samples;Min_cycle;Max_cycle;Signal;HPM_P1;HPM_P2
2022/05/28 00:00:14;;;;;;;4.30;2.03;;;;;;;10.36;80.09;96372.00;2056346;28;20065;-61
2022/05/28 00:01:17;;;;;;;6.72;2.00;;;;;;;10.29;79.57;96370.59;2056810;28;20042;-61
2022/05/28 00:02:18;;;;;;;4.28;2.22;;;;;;;10.29;79.64;96373.19;2056795;28;20046;-61
2022/05/28 00:03:20;;;;;;;5.18;1.92;;;;;;;10.30;79.83;96368.84;2064488;28;20053;-62
2022/05/28 00:04:21;;;;;;;4.20;1.83;;;;;;;10.59;78.57;96376.28;2048194;29;20542;-62
2022/05/28 00:05:22;;;;;;;3.67;2.20;;;;;;;10.59;78.97;96373.69;2049023;28;20051;-61
2022/05/28 00:06:24;;;;;;;3.17;1.88;;;;;;;10.46;78.86;96374.25;2064657;28;20409;-61
2022/05/28 00:07:25;;;;;;;4.07;1.85;;;;;;;10.38;79.02;96372.81;2056071;28;20057;-62
2022/05/28 00:08:26;;;;;;;5.78;2.28;;;;;;;10.46;79.66;96376.84;2056515;28;20070;-62
2022/05/28 00:09:27;;;;;;;5.55;2.30;;;;;;;10.53;78.48;96368.75;2063879;28;20053;-61
2022/05/28 00:10:29;;;;;;;3.15;1.67;;;;;;;10.51;78.35;96362.78;2064493;28;20058;-60
2022/05/28 00:11:34;;;;;;;3.78;2.15;;;;;;;10.47;78.88;96363.78;2056434;28;20444;-62
2022/05/28 00:12:35;;;;;;;4.63;2.00;;;;;;;10.38;79.09;96364.19;2057020;28;20565;-61
2022/05/28 00:13:36;;;;;;;2.55;1.60;;;;;;;10.26;79.81;96370.66;2064231;28;20061;-61
2022/05/28 00:14:39;;;;;;;2.83;1.58;;;;;;;10.29;78.99;96360.22;2064779;28;20061;-63
2022/05/28 00:15:42;;;;;;;3.55;2.20;;;;;;;10.39;79.05;96360.66;2056344;28;20544;-61
2022/05/28 00:16:45;;;;;;;4.65;2.08;;;;;;;10.38;79.50;96361.56;2048616;28;20051;-62
2022/05/28 00:17:48;;;;;;;3.60;2.20;;;;;;;10.42;79.01;96357.09;2056589;28;20560;-62
2022/05/28 00:18:49;;;;;;;3.70;1.95;;;;;;;10.43;79.42;96356.22;2063992;28;20051;-62
2022/05/28 00:19:51;;;;;;;3.78;1.92;;;;;;;10.41;79.40;96358.00;2057042;28;20047;-62
2022/05/28 00:20:52;;;;;;;4.07;2.40;;;;;;;10.52;78.46;96350.63;2065758;28;20038;-62
2022/05/28 00:21:54;;;;;;;3.47;2.08;;;;;;;10.58;78.61;96359.03;2056587;28;20054;-62
2022/05/28 00:22:55;;;;;;;3.50;2.08;;;;;;;10.60;78.49;96353.75;2048954;28;20070;-60
2022/05/28 00:23:56;;;;;;;2.75;2.03;;;;;;;10.61;78.56;96350.22;2056134;28;20098;-62
2022/05/28 00:24:57;;;;;;;3.92;1.92;;;;;;;10.59;78.33;96355.50;2056241;28;20047;-62
2022/05/28 00:25:58;;;;;;;3.75;2.10;;;;;;;10.57;78.22;96352.13;2053089;28;20043;-62
2022/05/28 00:26:59;;;;;;;4.28;1.77;;;;;;;10.72;77.22;96358.44;2056589;28;20554;-60
2022/05/28 00:28:01;;;;;;;4.32;2.50;;;;;;;10.72;77.77;96357.56;2055790;28;20054;-61
2022/05/28 00:29:02;;;;;;;4.28;2.20;;;;;;;10.74;77.98;96353.16;2048070;28;20058;-60
2022/05/28 00:30:04;;;;;;;5.68;2.10;;;;;;;10.71;77.35;96348.09;2040695;29;20054;-61
2022/05/28 00:31:05;;;;;;;4.93;2.22;;;;;;;10.69;78.11;96352.50;2040888;28;20054;-62
2022/05/28 00:32:07;;;;;;;4.60;2.08;;;;;;;10.69;78.24;96347.31;2040820;28;20048;-61
2022/05/28 00:33:08;;;;;;;3.80;2.33;;;;;;;10.66;77.43;96348.28;2048624;28;20066;-60
2022/05/28 00:34:09;;;;;;;4.18;2.25;;;;;;;10.64;77.54;96344.94;2064325;28;20546;-62
2022/05/28 00:35:13;;;;;;;4.82;2.00;;;;;;;10.67;78.22;96344.81;2048502;28;20043;-61
2022/05/28 00:36:15;;;;;;;4.55;2.33;;;;;;;10.74;77.18;96353.16;2033610;29;20538;-62
2022/05/28 00:37:16;;;;;;;3.72;2.25;;;;;;;10.68;77.19;96346.47;2048892;28;20050;-59
2022/05/28 00:38:17;;;;;;;3.33;2.20;;;;;;;10.75;77.48;96349.69;2056212;28;20055;-61
2022/05/28 00:39:18;;;;;;;4.47;2.10;;;;;;;10.70;77.16;96355.06;2048094;28;20516;-61
2022/05/28 00:40:22;;;;;;;3.65;2.25;;;;;;;10.78;77.52;96344.34;2048407;28;20056;-59
2022/05/28 00:41:23;;;;;;;3.40;1.92;;;;;;;10.79;76.68;96339.06;2056460;28;20057;-61
2022/05/28 00:42:24;;;;;;;3.25;2.20;;;;;;;10.74;77.08;96343.59;2048522;28;20043;-61
2022/05/28 00:43:27;;;;;;;3.75;1.90;;;;;;;10.75;77.72;96344.47;2048151;28;20066;-60
2022/05/28 00:44:29;;;;;;;2.63;2.00;;;;;;;10.90;77.03;96342.97;2057014;28;20043;-62
2022/05/28 00:45:31;;;;;;;4.88;2.05;;;;;;;10.89;76.77;96344.72;2048768;28;20537;-62
2022/05/28 00:46:32;;;;;;;3.90;2.03;;;;;;;10.75;77.49;96347.91;2049783;28;20047;-60
2022/05/28 00:47:33;;;;;;;6.35;2.25;;;;;;;10.88;77.24;96342.19;2057375;28;20680;-62
2022/05/28 00:48:36;;;;;;;4.80;2.05;;;;;;;10.93;77.54;96340.22;2062504;28;20046;-61
2022/05/28 00:49:37;;;;;;;3.63;2.13;;;;;;;10.96;77.01;96330.56;2057605;28;20062;-58
2022/05/28 00:50:38;;;;;;;3.70;2.33;;;;;;;11.02;76.04;96337.25;2049970;28;20050;-61
2022/05/28 00:51:41;;;;;;;3.88;2.10;;;;;;;11.00;76.03;96336.47;2041662;29;20060;-64
2022/05/28 00:52:42;;;;;;;4.70;1.92;;;;;;;11.01;76.80;96338.16;2042357;29;20442;-61
2022/05/28 00:53:44;;;;;;;2.85;1.77;;;;;;;11.02;77.51;96340.69;2049816;28;20055;-62
2022/05/28 00:54:46;;;;;;;4.03;2.20;;;;;;;11.08;76.18;96341.34;2058276;28;20542;-61
2022/05/28 00:55:47;;;;;;;5.22;2.30;;;;;;;11.08;76.45;96349.13;2057214;28;20061;-61
2022/05/28 00:56:48;;;;;;;5.07;1.90;;;;;;;11.12;76.16;96348.94;2057502;28;20417;-61
2022/05/28 00:57:50;;;;;;;2.53;2.00;;;;;;;11.09;76.34;96343.84;2042375;28;20428;-62
2022/05/28 00:58:51;;;;;;;4.05;2.55;;;;;;;11.12;75.83;96345.47;2058211;28;20046;-61
2022/05/28 00:59:54;;;;;;;4.10;2.20;;;;;;;11.15;75.96;96354.00;2057762;28;20054;-62
2022/05/28 01:00:56;;;;;;;6.07;2.88;;;;;;;11.20;76.39;96351.19;2057948;28;20054;-62
2022/05/28 01:02:02;;;;;;;4.15;2.45;;;;;;;11.19;75.86;96345.13;2049848;28;20055;-62
2022/05/28 01:03:28;;;;;;;6.05;2.40;;;;;;;11.33;75.90;96347.13;2043116;28;20058;-62
2022/05/28 01:04:43;;;;;;;3.42;1.95;;;;;;;11.36;75.37;96351.34;2053391;28;20050;-62
2022/05/28 01:05:50;;;;;;;3.03;2.17;;;;;;;11.37;75.35;96351.28;2059122;28;20051;-62
2022/05/28 01:07:11;;;;;;;3.60;2.30;;;;;;;11.37;75.61;96355.66;2065442;28;20046;-63
2022/05/28 01:08:21;;;;;;;4.28;2.22;;;;;;;11.32;74.97;96355.00;2065326;28;20046;-62
2022/05/28 01:09:28;;;;;;;2.53;2.17;;;;;;;11.29;75.70;96352.56;2065375;28;20044;-59
2022/05/28 01:10:31;;;;;;;6.18;2.22;;;;;;;11.27;75.91;96356.03;2058053;28;20051;-62
2022/05/28 01:11:40;;;;;;;3.42;2.17;;;;;;;11.20;75.98;96346.84;2057932;28;20058;-62
2022/05/28 01:12:47;;;;;;;4.15;2.25;;;;;;;11.27;76.17;96358.66;2065543;28;20057;-62
2022/05/28 01:13:57;;;;;;;3.03;2.10;;;;;;;11.15;75.57;96341.00;2057699;28;20058;-61
2022/05/28 01:15:12;;;;;;;3.08;2.17;;;;;;;11.15;76.19;96350.56;2057947;28;20051;-61
2022/05/28 01:16:19;;;;;;;4.75;2.58;;;;;;;11.09;76.50;96351.66;2052104;28;20540;-59
2022/05/28 01:17:27;;;;;;;4.88;2.40;;;;;;;11.10;76.49;96350.75;2050184;28;20425;-61
2022/05/28 01:18:34;;;;;;;4.30;1.98;;;;;;;11.02;76.68;96343.28;2050485;28;20453;-63
2022/05/28 01:19:58;;;;;;;3.40;2.40;;;;;;;10.99;77.51;96345.19;2049986;28;20051;-61
2022/05/28 01:21:04;;;;;;;2.67;2.00;;;;;;;10.92;77.51;96344.59;2060628;28;20050;-62
2022/05/28 01:22:08;;;;;;;5.05;2.45;;;;;;;10.87;77.61;96338.75;2057380;28;20046;-62
2022/05/28 01:23:12;;;;;;;3.88;2.47;;;;;;;10.79;77.47;96333.03;2057907;28;20051;-62
2022/05/28 01:24:21;;;;;;;3.28;2.30;;;;;;;10.75;77.67;96334.94;2057239;28;20055;-58
2022/05/28 01:25:28;;;;;;;4.07;2.25;;;;;;;10.75;77.60;96340.13;2057446;28;20562;-59
2022/05/28 01:26:52;;;;;;;4.38;2.20;;;;;;;10.69;77.88;96337.78;2050804;28;20043;-62
2022/05/28 01:27:58;;;;;;;2.97;2.15;;;;;;;10.71;77.71;96335.13;2044352;29;20055;-62
2022/05/28 01:29:04;;;;;;;4.30;2.38;;;;;;;10.66;78.51;96337.91;2052846;28;20425;-62
2022/05/28 01:30:07;;;;;;;3.63;2.30;;;;;;;10.65;78.15;96336.22;2049148;29;20047;-62
2022/05/28 01:31:08;;;;;;;4.28;2.40;;;;;;;10.68;77.57;96338.69;2042005;28;20040;-61
2022/05/28 01:32:10;;;;;;;3.00;2.20;;;;;;;10.68;77.88;96336.09;2040972;29;20047;-62
2022/05/28 01:33:12;;;;;;;4.15;2.78;;;;;;;10.72;77.93;96353.25;2041352;29;20044;-61
2022/05/28 01:34:14;;;;;;;3.42;2.20;;;;;;;10.55;78.04;96319.34;2041892;29;20043;-59
2022/05/28 01:35:16;;;;;;;5.13;2.58;;;;;;;10.75;77.87;96341.88;2049964;28;20043;-62
2022/05/28 01:36:17;;;;;;;2.95;2.10;;;;;;;10.73;78.35;96347.13;2057683;28;20057;-62
2022/05/28 01:37:18;;;;;;;5.10;2.83;;;;;;;10.78;78.43;96342.59;2048800;29;20050;-61
2022/05/28 01:38:19;;;;;;;4.68;2.47;;;;;;;10.79;77.89;96335.63;2033405;29;20634;-63
2022/05/28 01:39:20;;;;;;;6.22;2.40;;;;;;;10.76;78.35;96339.19;2033269;29;20569;-62
2022/05/28 01:40:22;;;;;;;7.15;2.60;;;;;;;10.77;78.09;96335.72;2049407;28;20058;-61
2022/05/28 01:41:23;;;;;;;4.60;2.50;;;;;;;10.74;78.06;96335.81;2048879;28;20397;-59
2022/05/28 01:42:25;;;;;;;3.15;2.20;;;;;;;10.80;78.53;96337.34;2049402;29;20054;-62
2022/05/28 01:43:26;;;;;;;4.93;2.78;;;;;;;10.74;78.17;96329.78;2057389;28;20118;-61
2022/05/28 01:44:28;;;;;;;4.20;2.55;;;;;;;10.74;78.72;96335.81;2049180;29;20062;-62
2022/05/28 01:45:29;;;;;;;4.07;2.75;;;;;;;10.74;78.78;96333.22;2049306;28;20047;-61
2022/05/28 01:46:31;;;;;;;5.53;2.67;;;;;;;10.73;79.37;96336.75;2057184;28;20046;-62
2022/05/28 01:47:32;;;;;;;6.25;3.00;;;;;;;10.70;78.43;96323.03;2048887;28;20413;-61
2022/05/28 01:48:34;;;;;;;6.13;3.05;;;;;;;10.74;77.74;96327.19;2049198;28;20062;-64
2022/05/28 01:49:35;;;;;;;6.10;2.83;;;;;;;10.70;77.83;96326.47;2049104;28;20469;-59
2022/05/28 01:50:39;;;;;;;4.00;2.70;;;;;;;10.71;78.40;96320.38;2049272;28;20516;-61
2022/05/28 01:51:43;;;;;;;3.72;2.50;;;;;;;10.69;78.70;96317.00;2049589;28;20047;-62
2022/05/28 01:52:45;;;;;;;5.13;2.80;;;;;;;10.61;79.33;96329.44;2050142;28;20058;-59
2022/05/28 01:55:07;;;;;;;5.32;2.50;;;;;;;10.63;79.24;96324.22;2052355;28;20047;-62
2022/05/28 01:56:09;;;;;;;3.00;2.15;;;;;;;10.62;78.83;96322.53;2057093;28;20043;-62
2022/05/28 01:57:11;;;;;;;4.95;2.45;;;;;;;10.62;78.50;96325.13;2033239;29;20048;-61
2022/05/28 01:58:13;;;;;;;3.83;2.55;;;;;;;10.66;79.31;96327.50;2042562;28;20048;-60
2022/05/28 01:59:17;;;;;;;5.50;2.55;;;;;;;10.73;78.25;96315.97;2065042;28;20065;-59
2022/05/28 02:00:18;;;;;;;9.73;2.60;;;;;;;10.68;78.30;96325.69;2057215;28;20669;-61
2022/05/28 02:01:23;;;;;;;4.35;2.53;;;;;;;10.67;79.25;96324.03;2057671;28;20051;-62
2022/05/28 02:02:25;;;;;;;5.47;2.05;;;;;;;10.68;78.68;96328.28;2057034;28;20049;-62
2022/05/28 02:03:28;;;;;;;4.85;2.97;;;;;;;10.72;78.47;96324.66;2057748;28;20059;-61
2022/05/28 02:04:30;;;;;;;5.95;2.72;;;;;;;10.73;78.75;96328.94;2049005;29;20437;-61
2022/05/28 02:05:31;;;;;;;5.03;2.78;;;;;;;10.73;78.18;96331.53;2049524;28;20429;-62
2022/05/28 02:06:33;;;;;;;4.35;2.70;;;;;;;10.74;78.87;96330.63;2057603;28;20119;-63
2022/05/28 02:07:35;;;;;;;3.03;2.42;;;;;;;10.73;78.71;96326.34;2049300;28;20050;-62
2022/05/28 02:08:38;;;;;;;4.57;2.83;;;;;;;10.78;78.97;96324.41;2057095;28;20050;-60
2022/05/28 02:09:43;;;;;;;4.63;2.47;;;;;;;10.84;78.92;96320.69;2056787;28;20043;-61
2022/05/28 02:10:46;;;;;;;4.82;2.88;;;;;;;10.82;77.81;96323.38;2049934;28;20043;-59
2022/05/28 02:12:12;;;;;;;4.20;2.40;;;;;;;10.84;78.44;96325.88;2049074;28;20054;-62
2022/05/28 02:13:21;;;;;;;5.40;2.55;;;;;;;10.92;77.17;96326.41;2057559;28;20050;-62
2022/05/28 02:14:26;;;;;;;;;;;;;;;10.84;78.11;96331.09;2058541;28;20038;-60
2022/05/28 02:15:35;;;;;;;5.30;2.60;;;;;;;10.86;78.07;96323.25;2066025;28;19914;-64
2022/05/28 02:16:46;;;;;;;5.32;3.10;;;;;;;10.87;77.14;96325.75;2065161;28;20038;-60
2022/05/28 02:17:53;;;;;;;4.15;2.85;;;;;;;10.72;77.93;96322.06;2066019;28;20509;-61
2022/05/28 02:18:57;;;;;;;3.28;2.47;;;;;;;10.72;78.38;96321.22;2064572;28;20046;-62
2022/05/28 02:20:21;;;;;;;3.92;2.60;;;;;;;10.70;77.92;96320.44;2065373;28;20108;-61
2022/05/28 02:21:27;;;;;;;3.80;2.42;;;;;;;10.74;78.14;96314.19;2057264;28;20045;-60
2022/05/28 02:22:38;;;;;;;3.58;2.33;;;;;;;10.70;78.21;96320.44;2060736;28;20113;-60
2022/05/28 02:23:39;;;;;;;7.72;2.95;;;;;;;10.71;78.69;96317.78;2064785;28;20054;-62
2022/05/28 02:24:40;;;;;;;6.32;2.75;;;;;;;10.71;78.98;96317.78;2064689;28;20046;-62
2022/05/28 02:25:55;;;;;;;4.68;2.80;;;;;;;10.67;78.43;96310.19;2064704;28;20632;-64
2022/05/28 02:26:59;;;;;;;6.75;3.10;;;;;;;10.70;77.70;96313.50;2057316;28;20051;-61
2022/05/28 02:28:02;;;;;;;5.28;3.00;;;;;;;10.68;78.05;96309.28;2057056;28;20047;-62
2022/05/28 02:29:04;;;;;;;8.90;3.22;;;;;;;10.58;77.49;96307.09;2056843;28;20046;-61
2022/05/28 02:30:06;;;;;;;5.03;3.00;;;;;;;10.60;77.22;96307.00;2049192;28;20043;-64
2022/05/28 02:31:13;;;;;;;7.53;3.20;;;;;;;10.62;77.46;96310.38;2049380;28;20102;-62
2022/05/28 02:32:18;;;;;;;5.25;3.20;;;;;;;10.64;77.01;96310.31;2050331;28;20046;-60
2022/05/28 02:33:20;;;;;;;5.32;2.95;;;;;;;10.59;77.00;96311.34;2057993;28;20086;-61
2022/05/28 02:34:21;;;;;;;5.25;3.20;;;;;;;10.63;77.72;96325.03;2057602;28;20034;-62
2022/05/28 02:35:22;;;;;;;5.63;3.42;;;;;;;10.57;76.93;96318.34;2056830;28;20046;-61
2022/05/28 02:36:23;;;;;;;5.75;2.80;;;;;;;10.62;77.43;96320.78;2057576;28;20042;-61
2022/05/28 02:37:26;;;;;;;10.10;3.17;;;;;;;10.57;77.20;96317.53;2049118;28;20548;-61
2022/05/28 02:38:27;;;;;;;7.28;2.95;;;;;;;10.65;76.74;96319.81;2048768;28;20429;-61
2022/05/28 02:39:28;;;;;;;8.65;3.60;;;;;;;10.62;77.31;96319.94;2048616;28;20505;-61
2022/05/28 02:40:29;;;;;;;6.93;3.40;;;;;;;10.60;76.68;96320.81;2057006;28;20460;-61
2022/05/28 02:41:31;;;;;;;6.60;3.25;;;;;;;10.61;76.99;96329.44;2057011;28;20055;-62
2022/05/28 02:42:32;;;;;;;7.45;3.53;;;;;;;10.63;75.72;96335.44;2049171;28;20138;-62
2022/05/28 02:43:34;;;;;;;7.85;3.55;;;;;;;10.62;75.37;96323.38;2056360;28;20054;-61
2022/05/28 02:44:35;;;;;;;8.32;3.30;;;;;;;10.73;75.59;96330.72;2057334;28;20441;-62
2022/05/28 02:45:37;;;;;;;7.88;3.22;;;;;;;10.70;74.55;96323.03;2049149;28;20054;-62
2022/05/28 02:46:39;;;;;;;7.40;3.45;;;;;;;10.68;74.11;96325.69;2048790;28;20059;-61
2022/05/28 02:47:40;;;;;;;8.95;3.10;;;;;;;10.66;74.13;96321.47;2056479;28;20063;-62
2022/05/28 02:48:41;;;;;;;10.88;3.80;;;;;;;10.60;74.58;96328.63;2056759;28;20046;-62
2022/05/28 02:49:43;;;;;;;7.55;3.10;;;;;;;10.69;74.24;96324.81;2048400;29;20054;-63
2022/05/28 02:50:44;;;;;;;6.07;3.00;;;;;;;10.73;73.19;96323.75;2041013;29;20544;-60
2022/05/28 02:51:45;;;;;;;6.07;2.70;;;;;;;10.71;73.13;96315.19;2049313;28;20160;-62
2022/05/28 02:52:46;;;;;;;12.80;3.67;;;;;;;10.69;72.73;96322.22;2064397;28;20046;-63
2022/05/28 02:53:49;;;;;;;5.60;3.08;;;;;;;10.78;71.86;96326.16;2048517;29;20050;-61
2022/05/28 02:54:50;;;;;;;6.82;2.70;;;;;;;10.70;72.20;96329.09;2041468;28;20055;-62
2022/05/28 02:55:51;;;;;;;6.53;2.80;;;;;;;10.68;73.03;96332.66;2056722;28;20053;-61
2022/05/28 02:56:54;;;;;;;5.97;3.00;;;;;;;10.62;72.67;96331.16;2048935;28;20047;-64
2022/05/28 02:57:55;;;;;;;5.57;2.67;;;;;;;10.57;71.94;96333.09;2056720;28;20355;-62
2022/05/28 02:58:57;;;;;;;8.50;3.22;;;;;;;10.62;72.10;96336.34;2056678;28;20057;-64
2022/05/28 02:59:58;;;;;;;10.55;3.05;;;;;;;10.60;71.71;96332.97;2041226;28;20178;-62
2022/05/28 03:01:01;;;;;;;9.93;3.05;;;;;;;10.59;71.50;96332.13;2049044;28;20051;-62
2022/05/28 03:02:02;;;;;;;5.97;2.67;;;;;;;10.59;71.15;96336.50;2056665;28;20050;-62
2022/05/28 03:03:03;;;;;;;7.40;2.90;;;;;;;10.62;71.02;96338.13;2056777;28;20055;-62
2022/05/28 03:04:05;;;;;;;8.35;3.08;;;;;;;10.68;70.53;96330.91;2057238;28;20050;-60
2022/05/28 03:05:07;;;;;;;9.27;3.20;;;;;;;10.65;71.21;96335.38;2056863;28;20058;-60
2022/05/28 03:06:08;;;;;;;6.95;3.05;;;;;;;10.66;70.03;96332.69;2056770;28;20050;-62
2022/05/28 03:07:09;;;;;;;5.68;2.88;;;;;;;10.66;70.56;96337.06;2056206;28;20135;-63
2022/05/28 03:08:10;;;;;;;12.00;3.42;;;;;;;10.70;70.20;96338.63;2047811;28;20039;-62
2022/05/28 03:09:12;;;;;;;9.07;2.80;;;;;;;10.70;70.21;96329.09;2032844;29;20040;-62
2022/05/28 03:10:13;;;;;;;9.02;3.40;;;;;;;10.65;71.20;96338.81;2041086;29;20048;-59
2022/05/28 03:11:14;;;;;;;7.68;3.25;;;;;;;10.59;71.48;96339.94;2040980;29;20044;-60
2022/05/28 03:12:15;;;;;;;6.78;2.70;;;;;;;10.54;71.93;96343.63;2048262;29;20654;-61
2022/05/28 03:13:16;;;;;;;10.63;2.90;;;;;;;10.47;71.87;96347.38;2040537;29;20055;-62
2022/05/28 03:14:17;;;;;;;7.85;2.88;;;;;;;10.46;70.80;96343.94;2040591;29;20405;-63
2022/05/28 03:15:19;;;;;;;10.23;3.08;;;;;;;10.42;70.56;96336.31;2048457;28;20043;-62
2022/05/28 03:16:20;;;;;;;8.70;3.20;;;;;;;10.33;71.54;96335.78;2056975;28;20050;-60
2022/05/28 03:17:21;;;;;;;6.00;3.00;;;;;;;10.30;71.16;96333.34;2040725;29;20052;-61
2022/05/28 03:18:22;;;;;;;9.70;3.45;;;;;;;10.23;72.44;96338.78;2041203;29;20047;-61
2022/05/28 03:19:23;;;;;;;10.68;3.38;;;;;;;10.12;72.73;96345.25;2056248;28;20042;-61
2022/05/28 03:20:24;;;;;;;6.18;2.85;;;;;;;10.19;72.65;96343.28;2041035;29;20054;-62
2022/05/28 03:21:26;;;;;;;11.60;3.35;;;;;;;10.12;72.17;96345.25;2032812;29;20060;-62
2022/05/28 03:22:28;;;;;;;8.57;3.50;;;;;;;10.07;72.93;96348.94;2025454;29;20582;-62
2022/05/28 03:23:29;;;;;;;8.20;2.97;;;;;;;10.13;71.95;96338.31;2049191;28;20058;-62
2022/05/28 03:24:30;;;;;;;9.77;3.17;;;;;;;10.15;71.98;96339.09;2058010;28;20063;-62
2022/05/28 03:25:31;;;;;;;7.55;2.70;;;;;;;10.09;72.35;96335.00;2056064;28;20057;-62
2022/05/28 03:26:33;;;;;;;13.30;3.08;;;;;;;10.04;72.56;96341.28;2040905;29;20158;-62
2022/05/28 03:27:34;;;;;;;12.20;3.20;;;;;;;10.01;71.95;96334.47;2048616;28;20674;-60
2022/05/28 03:28:35;;;;;;;7.20;3.17;;;;;;;9.92;72.97;96330.50;2048171;29;20055;-59
2022/05/28 03:29:36;;;;;;;6.85;3.10;;;;;;;9.87;73.20;96337.59;2048284;28;20054;-61
2022/05/28 03:30:37;;;;;;;9.95;3.17;;;;;;;9.86;73.91;96338.53;2048396;29;20055;-60
2022/05/28 03:31:38;;;;;;;8.77;3.13;;;;;;;9.78;73.90;96343.13;2048791;28;20051;-61
2022/05/28 03:32:40;;;;;;;10.32;3.92;;;;;;;9.76;74.21;96344.97;2048205;28;20047;-60
2022/05/28 03:33:41;;;;;;;7.47;3.40;;;;;;;9.60;75.09;96346.44;2058514;28;20062;-61
2022/05/28 03:34:43;;;;;;;7.00;3.33;;;;;;;9.74;76.10;96349.34;2056826;28;20058;-62
2022/05/28 03:35:44;;;;;;;10.23;3.90;;;;;;;9.68;75.83;96349.59;2048446;28;20047;-61
2022/05/28 03:36:45;;;;;;;12.85;3.70;;;;;;;9.64;76.63;96348.00;2040642;28;20059;-62
2022/05/28 03:37:46;;;;;;;9.85;3.30;;;;;;;9.53;77.14;96350.16;2032476;29;20066;-62
2022/05/28 03:38:47;;;;;;;9.52;4.25;;;;;;;9.53;77.46;96343.22;2056297;28;20050;-61
2022/05/28 03:39:48;;;;;;;9.88;3.53;;;;;;;9.54;77.08;96347.50;2056145;28;20055;-62
2022/05/28 03:40:50;;;;;;;9.20;3.60;;;;;;;9.52;78.22;96353.69;2041017;29;20047;-62
2022/05/28 03:41:51;;;;;;;13.60;3.72;;;;;;;9.56;78.43;96345.69;2040723;29;20509;-63
2022/05/28 03:42:52;;;;;;;7.60;3.83;;;;;;;9.46;78.14;96353.00;2040624;29;20047;-62
2022/05/28 03:43:53;;;;;;;14.23;4.80;;;;;;;9.41;78.67;96351.44;2048005;29;20050;-63
2022/05/28 03:44:54;;;;;;;8.75;4.30;;;;;;;9.39;79.23;96350.69;2064311;28;20050;-62
2022/05/28 03:45:55;;;;;;;12.32;4.15;;;;;;;9.45;79.07;96350.44;2056151;28;20046;-60
2022/05/28 03:46:57;;;;;;;11.18;4.28;;;;;;;9.28;78.93;96346.72;2056963;28;20463;-60
2022/05/28 03:47:58;;;;;;;10.93;4.00;;;;;;;9.44;79.39;96351.38;2048320;29;20619;-59
2022/05/28 03:49:03;;;;;;;7.75;3.95;;;;;;;9.36;79.79;96351.66;2047636;28;20050;-61
2022/05/28 03:50:04;;;;;;;8.70;4.05;;;;;;;9.41;79.17;96354.91;2055809;28;20069;-61
2022/05/28 03:51:07;;;;;;;8.00;3.67;;;;;;;9.41;79.16;96351.44;2048749;28;20043;-62
2022/05/28 03:52:08;;;;;;;12.02;4.03;;;;;;;9.39;79.28;96353.28;2048176;29;20054;-62
2022/05/28 03:53:10;;;;;;;8.82;3.90;;;;;;;9.32;78.99;96352.63;2048898;28;20046;-61
2022/05/28 03:54:11;;;;;;;8.02;3.97;;;;;;;9.42;78.38;96356.59;2056883;28;20042;-62
2022/05/28 03:55:13;;;;;;;7.07;3.80;;;;;;;9.39;78.42;96361.06;2053367;28;20527;-61
2022/05/28 03:56:14;;;;;;;11.70;4.13;;;;;;;9.31;78.70;96347.53;2048810;28;20039;-60
2022/05/28 03:57:31;;;;;;;10.93;3.83;;;;;;;9.28;79.56;96353.66;2048123;29;20046;-61
2022/05/28 03:58:33;;;;;;;9.07;4.30;;;;;;;9.30;79.37;96351.00;2041970;29;20048;-62
2022/05/28 03:59:34;;;;;;;8.13;4.28;;;;;;;9.29;79.34;96355.34;2048377;28;20465;-62
2022/05/28 04:00:35;;;;;;;10.18;4.20;;;;;;;9.21;80.01;96349.59;2049258;29;20541;-60
2022/05/28 04:01:36;;;;;;;9.45;4.43;;;;;;;9.28;79.96;96351.91;2048410;28;20043;-61
2022/05/28 04:02:37;;;;;;;9.48;4.60;;;;;;;9.21;79.90;96347.00;2056139;28;20043;-62
2022/05/28 04:03:39;;;;;;;6.22;3.88;;;;;;;9.22;80.47;96354.75;2056165;28;20082;-61
2022/05/28 04:04:40;;;;;;;6.53;4.05;;;;;;;9.17;80.35;96355.81;2056143;28;20065;-62
2022/05/28 04:05:41;;;;;;;8.73;3.85;;;;;;;9.22;79.82;96356.47;2048573;28;20054;-61
2022/05/28 04:06:43;;;;;;;8.30;3.90;;;;;;;9.28;79.93;96356.25;2048179;29;20047;-61
2022/05/28 04:07:44;;;;;;;8.75;3.80;;;;;;;9.36;80.14;96343.03;2055651;28;20050;-63
2022/05/28 04:08:45;;;;;;;10.80;4.45;;;;;;;9.42;79.92;96356.59;2055548;28;20509;-60
2022/05/28 04:09:46;;;;;;;9.55;4.20;;;;;;;9.38;80.05;96347.25;2048577;28;20043;-61
2022/05/28 04:10:47;;;;;;;9.60;4.45;;;;;;;9.33;80.29;96356.06;2048352;29;20533;-61
2022/05/28 04:11:49;;;;;;;8.15;4.20;;;;;;;9.25;80.46;96348.59;2040373;29;20047;-61
2022/05/28 04:12:50;;;;;;;11.35;4.50;;;;;;;9.28;81.17;96353.66;2033507;29;20059;-62
2022/05/28 04:13:51;;;;;;;8.23;4.30;;;;;;;9.25;81.32;96353.78;2040543;28;20055;-61
2022/05/28 04:14:52;;;;;;;9.98;4.18;;;;;;;9.26;81.37;96356.31;2056844;28;20054;-63
2022/05/28 04:15:54;;;;;;;8.38;4.57;;;;;;;9.34;80.91;96350.84;2056606;28;20398;-62
2022/05/28 04:16:55;;;;;;;11.00;4.95;;;;;;;9.38;80.89;96355.03;2063879;28;20042;-62
2022/05/28 04:17:56;;;;;;;10.77;4.20;;;;;;;9.34;80.42;96353.44;2056425;28;20050;-61
2022/05/28 04:18:57;;;;;;;12.45;4.30;;;;;;;9.32;80.88;96359.56;2055851;28;20043;-62
2022/05/28 04:19:59;;;;;;;11.65;3.88;;;;;;;9.32;81.16;96357.81;2048836;28;20445;-61
2022/05/28 04:21:00;;;;;;;10.20;4.35;;;;;;;9.49;80.84;96358.06;2049387;28;20055;-59
2022/05/28 04:22:01;;;;;;;8.82;4.00;;;;;;;9.63;79.89;96357.53;2034526;29;20519;-62
2022/05/28 04:23:02;;;;;;;9.68;4.20;;;;;;;9.49;80.85;96359.81;2034062;29;20052;-62
2022/05/28 04:24:04;;;;;;;10.60;4.28;;;;;;;9.48;81.81;96361.53;2057736;28;20046;-61
2022/05/28 04:25:06;;;;;;;9.60;4.55;;;;;;;9.43;80.82;96358.28;2057523;28;20054;-62
2022/05/28 04:26:07;;;;;;;10.90;4.95;;;;;;;9.33;80.62;96361.25;2053104;28;20054;-62
2022/05/28 04:27:09;;;;;;;9.57;4.35;;;;;;;9.39;80.36;96372.25;2049226;28;20043;-62
2022/05/28 04:28:10;;;;;;;8.10;4.10;;;;;;;9.42;80.33;96368.72;2049627;28;20525;-62
2022/05/28 04:29:11;;;;;;;9.85;4.28;;;;;;;9.49;80.74;96372.78;2041235;29;20052;-62
2022/05/28 04:30:13;;;;;;;8.32;4.50;;;;;;;9.63;80.08;96374.84;2034453;29;20048;-60
2022/05/28 04:31:14;;;;;;;7.13;3.95;;;;;;;9.60;79.91;96373.22;2050571;28;20115;-59
2022/05/28 04:32:16;;;;;;;9.07;4.55;;;;;;;9.43;79.55;96375.56;2042172;29;20039;-60
2022/05/28 04:33:17;;;;;;;8.32;4.13;;;;;;;9.55;80.09;96363.94;2050096;28;20122;-59
2022/05/28 04:34:18;;;;;;;8.63;3.85;;;;;;;9.59;79.49;96368.91;2049580;29;20058;-60
2022/05/28 04:35:19;;;;;;;12.52;4.18;;;;;;;9.71;79.66;96371.06;2049794;28;20048;-62
2022/05/28 04:36:20;;;;;;;8.55;3.92;;;;;;;9.76;79.34;96370.06;2065755;28;20049;-61
2022/05/28 04:37:21;;;;;;;10.77;4.45;;;;;;;9.69;79.23;96369.44;2065648;28;20042;-62
2022/05/28 04:38:23;;;;;;;9.88;4.43;;;;;;;9.84;78.69;96368.84;2049666;29;20058;-62
2022/05/28 04:39:24;;;;;;;10.48;4.18;;;;;;;9.73;78.47;96368.44;2050158;28;20067;-62
2022/05/28 04:40:26;;;;;;;10.77;3.97;;;;;;;9.77;78.58;96369.97;2041914;29;20051;-63
2022/05/28 04:41:27;;;;;;;9.07;4.32;;;;;;;9.86;78.99;96368.78;2041982;28;20059;-62
2022/05/28 04:42:28;;;;;;;10.10;4.38;;;;;;;9.94;77.94;96372.78;2057390;28;20058;-61
2022/05/28 04:43:30;;;;;;;7.03;3.63;;;;;;;9.77;79.07;96367.38;2057566;28;20047;-62
2022/05/28 04:44:31;;;;;;;7.03;4.30;;;;;;;9.78;78.43;96373.41;2065299;28;20054;-61
2022/05/28 04:45:32;;;;;;;7.53;3.95;;;;;;;9.70;79.13;96369.38;2057846;28;20054;-61
2022/05/28 04:46:33;;;;;;;10.30;4.18;;;;;;;9.77;79.59;96376.94;2057669;28;20146;-61
2022/05/28 04:47:34;;;;;;;10.50;4.22;;;;;;;9.74;80.03;96382.22;2057665;28;20076;-62
2022/05/28 04:48:36;;;;;;;10.48;4.68;;;;;;;9.66;79.72;96374.75;2068600;23;20062;-60
2022/05/28 04:49:37;;;;;;;8.00;4.53;;;;;;;9.60;80.20;96377.56;2062708;28;20054;-58
2022/05/28 04:50:38;;;;;;;7.68;4.40;;;;;;;9.71;79.31;96378.00;2051487;28;20429;-60
2022/05/28 04:51:39;;;;;;;10.07;4.85;;;;;;;9.73;79.88;96384.00;2058003;28;20058;-62
2022/05/28 04:52:41;;;;;;;10.52;4.55;;;;;;;9.65;80.03;96381.69;2058192;28;20536;-61
2022/05/28 04:53:42;;;;;;;8.82;4.65;;;;;;;9.73;79.74;96381.41;2057736;28;20050;-61
2022/05/28 04:54:44;;;;;;;10.15;4.47;;;;;;;9.70;80.13;96384.94;2057964;28;20047;-62
2022/05/28 04:55:45;;;;;;;9.13;4.07;;;;;;;9.78;80.21;96386.38;2057923;28;20046;-58
2022/05/28 04:56:46;;;;;;;9.23;4.50;;;;;;;9.74;79.84;96390.00;2057961;28;20054;-62